Time;durP1;ratioP1;P1;durP2;ratioP2;P2;SDS_P1;SDS_P2;PMS_P1;PMS_P2;Temp;Humidity;BMP_temperature;BMP_pressure;BME280_temperature;BME280_humidity;BME280_pressure;Samples;Min_cycle;Max_cycle;Signal;HPM_P1;HPM_P2
2022/04/22 00:00:57;;;;;;;;;;;21.00;47.80;;;;;;5067258;28;19923;-75
2022/04/22 00:03:22;;;;;;;;;;;21.00;47.90;;;;;;5052979;28;19920;-75
2022/04/22 00:05:48;;;;;;;;;;;21.00;47.80;;;;;;5069332;28;19943;-74
2022/04/22 00:08:13;;;;;;;;;;;21.00;47.90;;;;;;5056057;28;19973;-79
2022/04/22 00:13:23;;;;;;;;;;;20.90;47.90;;;;;;5067266;28;19924;-76
2022/04/22 00:15:49;;;;;;;;;;;21.00;48.00;;;;;;5068514;28;20018;-74
2022/04/22 00:18:14;;;;;;;;;;;21.00;48.00;;;;;;5050687;28;20367;-75
2022/04/22 00:20:40;;;;;;;;;;;20.90;47.90;;;;;;5068515;28;19924;-77
2022/04/22 00:23:05;;;;;;;;;;;20.90;47.90;;;;;;5041263;28;19981;-80
2022/04/22 00:25:31;;;;;;;;;;;20.90;47.90;;;;;;5083654;28;20375;-79
2022/04/22 00:27:56;;;;;;;;;;;20.90;47.90;;;;;;5069303;28;19993;-80
2022/04/22 00:30:22;;;;;;;;;;;20.90;47.90;;;;;;5067347;28;19931;-80
2022/04/22 00:32:47;;;;;;;;;;;20.90;48.00;;;;;;5053121;28;20464;-79
2022/04/22 00:35:12;;;;;;;;;;;20.90;48.00;;;;;;5066136;28;20285;-79
2022/04/22 00:37:40;;;;;;;;;;;20.90;48.00;;;;;;5087291;28;19930;-76
2022/04/22 00:40:05;;;;;;;;;;;20.90;48.00;;;;;;5066295;28;20049;-78
2022/04/22 00:42:31;;;;;;;;;;;20.90;48.00;;;;;;5068856;28;20006;-78
2022/04/22 00:44:57;;;;;;;;;;;20.80;48.00;;;;;;5049084;28;19920;-79
2022/04/22 00:47:23;;;;;;;;;;;20.90;48.00;;;;;;5067277;28;19920;-76
2022/04/22 00:49:49;;;;;;;;;;;20.80;48.00;;;;;;5065275;28;20048;-76
2022/04/22 00:52:15;;;;;;;;;;;20.80;48.00;;;;;;5059230;28;20410;-76
2022/04/22 00:54:41;;;;;;;;;;;20.80;48.00;;;;;;5066323;28;19920;-75
2022/04/22 00:57:07;;;;;;;;;;;20.80;48.00;;;;;;5067884;28;19927;-79
2022/04/22 00:59:35;;;;;;;;;;;20.80;48.00;;;;;;5068416;28;19975;-78
2022/04/22 01:02:01;;;;;;;;;;;20.80;48.00;;;;;;5087271;28;19971;-75
2022/04/22 01:09:56;;;;;;;;;;;20.70;47.90;;;;;;5065508;28;19924;-74
2022/04/22 01:12:22;;;;;;;;;;;20.70;48.00;;;;;;5053120;28;19927;-74
2022/04/22 01:14:47;;;;;;;;;;;20.70;48.00;;;;;;5064914;28;19940;-74
2022/04/22 01:17:13;;;;;;;;;;;20.70;47.90;;;;;;5068000;28;19912;-76
2022/04/22 01:19:38;;;;;;;;;;;20.70;48.00;;;;;;5047222;28;19963;-74
2022/04/22 01:22:05;;;;;;;;;;;20.70;48.00;;;;;;5063055;28;19966;-74
2022/04/22 01:24:31;;;;;;;;;;;20.70;48.00;;;;;;5085069;28;19955;-75
2022/04/22 01:26:57;;;;;;;;;;;20.70;48.00;;;;;;5086259;28;19998;-74
2022/04/22 01:29:23;;;;;;;;;;;20.70;48.00;;;;;;5077504;28;20050;-75
2022/04/22 01:31:48;;;;;;;;;;;20.70;48.00;;;;;;5081482;28;20010;-74
2022/04/22 01:34:14;;;;;;;;;;;20.60;48.00;;;;;;5071816;28;19924;-74
2022/04/22 01:36:39;;;;;;;;;;;20.60;48.00;;;;;;5060296;28;19968;-74
2022/04/22 01:39:05;;;;;;;;;;;20.60;48.00;;;;;;5065528;28;19975;-75
2022/04/22 01:41:31;;;;;;;;;;;20.60;48.00;;;;;;5069393;28;19921;-74
2022/04/22 01:43:57;;;;;;;;;;;20.60;48.00;;;;;;5062976;28;19923;-74
2022/04/22 01:46:22;;;;;;;;;;;20.60;48.00;;;;;;5074313;28;20046;-75
2022/04/22 01:48:48;;;;;;;;;;;20.60;48.00;;;;;;5068005;28;20065;-75
2022/04/22 01:51:15;;;;;;;;;;;20.60;48.00;;;;;;5072367;28;19921;-75
2022/04/22 01:53:41;;;;;;;;;;;20.60;48.00;;;;;;5067151;28;19927;-74
2022/04/22 01:56:07;;;;;;;;;;;20.60;48.00;;;;;;5056689;28;20623;-75
2022/04/22 01:58:33;;;;;;;;;;;20.60;48.00;;;;;;5085731;28;20023;-75
2022/04/22 02:00:58;;;;;;;;;;;20.60;48.00;;;;;;5056741;28;20010;-74
2022/04/22 02:03:24;;;;;;;;;;;20.50;48.00;;;;;;5045753;28;19990;-74
2022/04/22 02:05:49;;;;;;;;;;;20.50;48.00;;;;;;5045844;28;19956;-74
2022/04/22 02:08:15;;;;;;;;;;;20.50;48.00;;;;;;5063288;28;20406;-75
2022/04/22 02:10:41;;;;;;;;;;;20.50;48.00;;;;;;5070358;28;19924;-74
2022/04/22 02:13:08;;;;;;;;;;;20.50;48.00;;;;;;5088743;28;20023;-75
2022/04/22 02:15:34;;;;;;;;;;;20.50;48.00;;;;;;5050863;28;19949;-75
2022/04/22 02:17:59;;;;;;;;;;;20.50;48.00;;;;;;5070017;28;20349;-75
2022/04/22 02:20:25;;;;;;;;;;;20.50;48.00;;;;;;5069426;28;19923;-75
2022/04/22 02:22:50;;;;;;;;;;;20.50;48.00;;;;;;5066568;28;20267;-74
2022/04/22 02:25:15;;;;;;;;;;;20.50;48.00;;;;;;5068236;28;19970;-75
2022/04/22 02:30:25;;;;;;;;;;;20.50;48.00;;;;;;5070635;28;19924;-74
2022/04/22 02:32:51;;;;;;;;;;;20.40;48.00;;;;;;5067215;28;19950;-74
2022/04/22 02:35:18;;;;;;;;;;;20.50;48.00;;;;;;5074286;28;19927;-74
2022/04/22 02:37:43;;;;;;;;;;;20.40;48.10;;;;;;5069656;28;19932;-74
2022/04/22 02:40:09;;;;;;;;;;;20.40;48.00;;;;;;5078001;28;19949;-77
2022/04/22 02:45:28;;;;;;;;;;;20.40;47.90;;;;;;5058867;28;19967;-79
2022/04/22 02:47:54;;;;;;;;;;;20.40;47.90;;;;;;5070382;28;19924;-80
2022/04/22 02:50:19;;;;;;;;;;;20.40;47.90;;;;;;5079163;28;19983;-78
2022/04/22 02:52:45;;;;;;;;;;;20.40;47.90;;;;;;5083246;28;19959;-77
2022/04/22 02:55:10;;;;;;;;;;;20.40;47.80;;;;;;5059512;28;19975;-79
2022/04/22 02:57:36;;;;;;;;;;;20.40;47.80;;;;;;5063654;28;19920;-76
2022/04/22 03:00:02;;;;;;;;;;;20.40;47.80;;;;;;5064461;28;19931;-79
2022/04/22 03:02:27;;;;;;;;;;;20.40;47.90;;;;;;5049590;28;19998;-76
2022/04/22 03:04:53;;;;;;;;;;;20.40;48.20;;;;;;5055947;28;20383;-78
2022/04/22 03:07:19;;;;;;;;;;;20.40;47.80;;;;;;5088708;28;19972;-79
2022/04/22 03:09:45;;;;;;;;;;;20.40;47.80;;;;;;5068173;28;19959;-77
2022/04/22 03:12:13;;;;;;;;;;;20.40;47.80;;;;;;5070125;28;19935;-80
2022/04/22 03:14:39;;;;;;;;;;;20.40;47.80;;;;;;5066964;28;19923;-76
2022/04/22 03:17:07;;;;;;;;;;;20.40;47.80;;;;;;5050627;28;19931;-76
2022/04/22 03:19:33;;;;;;;;;;;20.40;47.80;;;;;;5034526;28;19978;-77
2022/04/22 03:21:58;;;;;;;;;;;20.30;47.80;;;;;;5067401;28;19932;-76
2022/04/22 03:24:24;;;;;;;;;;;20.40;47.80;;;;;;5048905;28;19931;-75
2022/04/22 03:26:49;;;;;;;;;;;20.40;47.80;;;;;;5069997;28;19927;-77
2022/04/22 03:29:15;;;;;;;;;;;20.40;48.60;;;;;;5086199;28;20322;-77
2022/04/22 03:31:40;;;;;;;;;;;20.30;47.80;;;;;;5058816;28;19921;-77
2022/04/22 03:34:06;;;;;;;;;;;20.30;47.70;;;;;;5050423;28;19928;-76
2022/04/22 03:36:31;;;;;;;;;;;20.30;47.70;;;;;;5086086;28;19924;-79
2022/04/22 03:38:57;;;;;;;;;;;20.30;47.80;;;;;;5069544;28;20308;-78
2022/04/22 03:41:25;;;;;;;;;;;20.30;47.80;;;;;;5068371;28;19924;-79
2022/04/22 03:43:50;;;;;;;;;;;20.30;47.70;;;;;;5069779;28;19931;-75
2022/04/22 03:46:16;;;;;;;;;;;20.30;47.80;;;;;;5052051;28;20319;-75
2022/04/22 03:48:41;;;;;;;;;;;20.30;47.70;;;;;;5032983;28;19965;-74
2022/04/22 03:51:07;;;;;;;;;;;20.30;47.80;;;;;;5065854;28;20513;-74
2022/04/22 03:53:36;;;;;;;;;;;20.30;47.70;;;;;;5086260;28;20378;-74
2022/04/22 03:58:10;;;;;;;;;;;20.30;47.70;;;;;;5054877;28;19965;-74
2022/04/22 03:58:48;;;;;;;;;;;20.30;47.70;;;;;;5066031;28;20002;-74
2022/04/22 04:01:14;;;;;;;;;;;20.30;47.70;;;;;;5052612;28;20015;-74
2022/04/22 04:03:39;;;;;;;;;;;20.30;47.70;;;;;;5069234;28;19920;-74
2022/04/22 04:06:07;;;;;;;;;;;20.30;47.70;;;;;;5071349;28;19920;-75
2022/04/22 04:08:32;;;;;;;;;;;20.30;47.70;;;;;;5052593;28;19920;-75
2022/04/22 04:16:27;;;;;;;;;;;20.30;47.60;;;;;;5068273;28;20464;-78
2022/04/22 04:23:14;;;;;;;;;;;20.30;47.70;;;;;;5068789;28;20379;-77
2022/04/22 04:24:22;;;;;;;;;;;20.30;47.60;;;;;;5079552;28;20436;-77
2022/04/22 04:26:47;;;;;;;;;;;20.30;47.60;;;;;;5043471;28;19925;-77
2022/04/22 04:29:13;;;;;;;;;;;20.20;47.60;;;;;;5062825;28;19942;-76
2022/04/22 04:31:39;;;;;;;;;;;20.20;47.60;;;;;;5064601;28;19923;-80
2022/04/22 04:34:04;;;;;;;;;;;20.20;47.60;;;;;;5068706;28;19984;-78
2022/04/22 04:36:31;;;;;;;;;;;20.20;47.60;;;;;;5050686;28;19924;-79
2022/04/22 04:38:57;;;;;;;;;;;20.30;47.60;;;;;;5056044;28;19924;-79
2022/04/22 04:41:23;;;;;;;;;;;20.20;47.60;;;;;;5048790;28;19935;-78
2022/04/22 04:43:48;;;;;;;;;;;20.20;47.60;;;;;;5049453;28;19969;-78
2022/04/22 04:46:14;;;;;;;;;;;20.20;47.60;;;;;;5050057;28;19924;-76
2022/04/22 04:48:40;;;;;;;;;;;20.20;47.50;;;;;;5059362;28;20288;-77
2022/04/22 04:51:05;;;;;;;;;;;20.20;47.60;;;;;;5058922;28;20480;-79
2022/04/22 04:53:31;;;;;;;;;;;20.20;47.60;;;;;;5047630;28;20383;-79
2022/04/22 04:55:57;;;;;;;;;;;20.20;47.50;;;;;;5049321;28;19920;-78
2022/04/22 04:58:22;;;;;;;;;;;20.20;47.50;;;;;;5059752;28;19916;-77
2022/04/22 05:00:48;;;;;;;;;;;20.20;47.50;;;;;;5049677;28;19963;-74
2022/04/22 05:03:13;;;;;;;;;;;20.20;47.50;;;;;;5063264;28;19920;-74
2022/04/22 05:05:39;;;;;;;;;;;20.20;47.50;;;;;;5068781;28;19931;-74
2022/04/22 05:08:05;;;;;;;;;;;20.20;47.50;;;;;;5041735;28;20019;-74
2022/04/22 05:10:31;;;;;;;;;;;20.20;47.50;;;;;;5063642;28;20444;-75
2022/04/22 05:12:57;;;;;;;;;;;20.20;47.50;;;;;;5054792;28;19921;-75
2022/04/22 05:15:23;;;;;;;;;;;20.20;47.50;;;;;;5047777;28;19970;-74
2022/04/22 05:17:49;;;;;;;;;;;20.20;47.40;;;;;;5057683;28;19920;-74
2022/04/22 05:20:17;;;;;;;;;;;20.20;47.50;;;;;;5040401;28;20414;-76
2022/04/22 05:22:43;;;;;;;;;;;20.20;47.40;;;;;;5042337;28;20299;-74
2022/04/22 05:25:10;;;;;;;;;;;20.20;47.40;;;;;;5059020;28;19924;-73
2022/04/22 05:27:35;;;;;;;;;;;20.20;47.40;;;;;;5063819;28;20003;-76
2022/04/22 05:32:48;;;;;;;;;;;20.20;47.40;;;;;;5063710;28;20374;-75
2022/04/22 05:35:15;;;;;;;;;;;20.20;47.40;;;;;;5068237;28;20011;-75
2022/04/22 05:37:48;;;;;;;;;;;20.20;47.40;;;;;;5065601;28;19934;-76
2022/04/22 05:40:15;;;;;;;;;;;20.30;47.50;;;;;;5048362;28;19967;-75
2022/04/22 05:42:40;;;;;;;;;;;20.20;47.40;;;;;;5074980;28;19979;-74
2022/04/22 05:45:06;;;;;;;;;;;20.20;47.40;;;;;;5065104;28;19967;-74
2022/04/22 05:47:32;;;;;;;;;;;20.20;47.40;;;;;;5070403;28;19920;-76
2022/04/22 05:49:57;;;;;;;;;;;20.30;47.50;;;;;;5087484;28;19930;-76
2022/04/22 05:52:23;;;;;;;;;;;20.20;47.40;;;;;;5035836;28;20039;-75
2022/04/22 05:54:49;;;;;;;;;;;20.30;47.60;;;;;;5061003;28;20325;-75
2022/04/22 05:57:14;;;;;;;;;;;20.30;47.60;;;;;;5086790;28;19920;-74
2022/04/22 05:59:41;;;;;;;;;;;20.30;47.70;;;;;;5067346;28;19920;-75
2022/04/22 06:02:07;;;;;;;;;;;20.30;47.80;;;;;;5054033;28;19924;-77
2022/04/22 06:04:33;;;;;;;;;;;20.30;47.80;;;;;;5054384;28;19930;-75
2022/04/22 06:06:58;;;;;;;;;;;20.30;47.90;;;;;;5052303;28;19967;-74
2022/04/22 06:12:08;;;;;;;;;;;20.40;48.30;;;;;;5055686;28;19947;-76
2022/04/22 06:14:34;;;;;;;;;;;20.40;48.40;;;;;;5054607;28;19924;-75
2022/04/22 06:17:00;;;;;;;;;;;20.40;48.50;;;;;;5081806;28;19920;-75
2022/04/22 06:19:25;;;;;;;;;;;20.40;48.60;;;;;;5049374;28;19930;-75
2022/04/22 06:21:51;;;;;;;;;;;20.50;48.70;;;;;;5040329;28;19928;-74
2022/04/22 06:24:16;;;;;;;;;;;20.50;48.70;;;;;;5079947;28;19916;-77
2022/04/22 06:26:42;;;;;;;;;;;20.50;48.80;;;;;;5083463;28;20019;-76
2022/04/22 06:29:07;;;;;;;;;;;20.50;49.00;;;;;;5042560;28;19966;-78
2022/04/22 06:31:35;;;;;;;;;;;20.50;48.90;;;;;;5081153;28;19919;-75
2022/04/22 06:34:01;;;;;;;;;;;20.60;49.00;;;;;;5062474;28;19925;-76
2022/04/22 06:36:28;;;;;;;;;;;20.60;48.90;;;;;;5059106;28;19939;-69
2022/04/22 06:38:58;;;;;;;;;;;20.70;48.90;;;;;;5071396;28;19923;-73
2022/04/22 06:47:15;;;;;;;;;;;20.80;49.40;;;;;;4977178;28;20734;-76
2022/04/22 06:49:41;;;;;;;;;;;20.90;50.40;;;;;;4981773;28;19930;-74
2022/04/22 06:52:07;;;;;;;;;;;20.90;49.70;;;;;;5028351;28;19959;-76
2022/04/22 06:54:33;;;;;;;;;;;21.00;49.80;;;;;;5045956;28;20691;-75
2022/04/22 06:57:00;;;;;;;;;;;21.00;50.60;;;;;;5039980;28;20339;-75
2022/04/22 06:59:26;;;;;;;;;;;21.10;49.90;;;;;;5078945;28;19924;-73
2022/04/22 07:01:51;;;;;;;;;;;21.10;49.90;;;;;;5051982;28;19934;-72
2022/04/22 07:04:17;;;;;;;;;;;21.20;49.80;;;;;;5059756;28;19923;-74
2022/04/22 07:06:43;;;;;;;;;;;21.20;49.80;;;;;;5087483;28;20519;-74
2022/04/22 07:09:10;;;;;;;;;;;21.20;49.80;;;;;;5053309;28;19934;-75
2022/04/22 07:11:37;;;;;;;;;;;21.30;49.70;;;;;;5040184;28;19928;-76
2022/04/22 07:14:02;;;;;;;;;;;21.30;49.60;;;;;;5034393;28;20341;-76
2022/04/22 07:16:28;;;;;;;;;;;21.40;49.60;;;;;;5057721;28;19912;-77
2022/04/22 07:18:59;;;;;;;;;;;21.40;49.50;;;;;;5054701;28;20782;-75
2022/04/22 07:21:25;;;;;;;;;;;21.50;49.50;;;;;;5034680;28;20387;-73
2022/04/22 07:23:51;;;;;;;;;;;21.60;49.50;;;;;;5053946;28;19921;-74
2022/04/22 07:26:17;;;;;;;;;;;21.60;49.50;;;;;;5055291;28;20009;-76
2022/04/22 07:28:46;;;;;;;;;;;21.60;49.50;;;;;;5055890;28;20511;-75
2022/04/22 07:31:12;;;;;;;;;;;21.60;49.30;;;;;;5061987;28;19919;-74
2022/04/22 07:33:38;;;;;;;;;;;21.70;49.30;;;;;;5057141;28;19924;-74
2022/04/22 07:36:03;;;;;;;;;;;21.70;49.20;;;;;;5062263;28;19982;-74
2022/04/22 07:38:29;;;;;;;;;;;21.80;49.20;;;;;;5042978;28;19924;-74
2022/04/22 07:40:54;;;;;;;;;;;21.90;49.40;;;;;;5036658;28;20428;-75
2022/04/22 07:48:52;;;;;;;;;;;22.00;49.30;;;;;;5044921;28;19927;-77
2022/04/22 07:51:18;;;;;;;;;;;22.00;49.20;;;;;;5034712;28;19985;-76
2022/04/22 07:53:43;;;;;;;;;;;22.00;49.10;;;;;;5083131;28;20592;-80
2022/04/22 07:56:09;;;;;;;;;;;22.10;49.00;;;;;;5059855;28;19931;-74
2022/04/22 07:58:34;;;;;;;;;;;22.10;48.90;;;;;;5061347;28;19927;-73
2022/04/22 08:01:00;;;;;;;;;;;22.10;48.80;;;;;;5051783;28;19924;-71
2022/04/22 08:03:26;;;;;;;;;;;22.20;48.80;;;;;;5051934;28;19996;-73
2022/04/22 08:05:51;;;;;;;;;;;22.20;48.80;;;;;;5060258;28;19924;-71
2022/04/22 08:08:17;;;;;;;;;;;22.20;48.80;;;;;;5037000;28;20292;-71
2022/04/22 08:10:42;;;;;;;;;;;22.20;48.60;;;;;;5050773;28;20019;-73
2022/04/22 08:13:08;;;;;;;;;;;22.30;48.60;;;;;;5046411;28;19989;-74
2022/04/22 08:15:34;;;;;;;;;;;22.40;48.60;;;;;;5050580;28;19921;-73
2022/04/22 08:18:00;;;;;;;;;;;22.40;48.60;;;;;;5033903;28;19966;-73
2022/04/22 08:20:26;;;;;;;;;;;22.40;48.50;;;;;;5055448;28;19928;-73
2022/04/22 08:22:51;;;;;;;;;;;22.40;48.30;;;;;;5052033;28;19925;-72
2022/04/22 08:25:17;;;;;;;;;;;22.40;48.00;;;;;;5054838;28;20066;-77
2022/04/22 08:27:45;;;;;;;;;;;22.40;47.90;;;;;;5048947;28;19931;-76
2022/04/22 08:30:11;;;;;;;;;;;22.40;47.90;;;;;;5048737;28;20296;-72
2022/04/22 08:32:38;;;;;;;;;;;22.50;48.70;;;;;;5059019;28;19924;-73
2022/04/22 08:35:04;;;;;;;;;;;22.50;47.90;;;;;;5051074;28;19920;-75
2022/04/22 08:37:30;;;;;;;;;;;22.50;47.80;;;;;;5054716;28;19924;-78
2022/04/22 08:39:57;;;;;;;;;;;22.50;47.80;;;;;;5048347;28;20129;-76
2022/04/22 08:42:24;;;;;;;;;;;22.60;47.90;;;;;;5056461;28;20368;-73
2022/04/22 08:44:53;;;;;;;;;;;22.60;47.90;;;;;;5051637;28;20415;-73
2022/04/22 08:50:13;;;;;;;;;;;22.60;47.80;;;;;;5052578;28;19947;-77
2022/04/22 08:52:39;;;;;;;;;;;22.70;47.80;;;;;;5048986;28;20058;-75
2022/04/22 08:55:06;;;;;;;;;;;22.70;47.70;;;;;;5059465;28;20537;-75
2022/04/22 08:57:31;;;;;;;;;;;22.70;47.70;;;;;;5030914;28;19920;-75
2022/04/22 08:59:59;;;;;;;;;;;22.70;47.70;;;;;;5044138;28;19936;-73
2022/04/22 09:02:25;;;;;;;;;;;22.70;47.80;;;;;;5080039;28;20070;-75
2022/04/22 09:04:50;;;;;;;;;;;22.80;48.00;;;;;;5048959;28;20326;-76
2022/04/22 09:07:18;;;;;;;;;;;22.80;47.90;;;;;;5042929;28;20066;-80
2022/04/22 09:09:49;;;;;;;;;;;22.80;47.90;;;;;;5029125;28;20403;-79
2022/04/22 09:12:17;;;;;;;;;;;22.90;47.90;;;;;;5051233;28;20329;-72
2022/04/22 09:14:46;;;;;;;;;;;22.90;47.80;;;;;;5046608;28;19971;-72
2022/04/22 09:17:16;;;;;;;;;;;22.90;47.70;;;;;;5050882;28;19964;-73
2022/04/22 09:19:44;;;;;;;;;;;22.90;47.70;;;;;;5049240;28;20375;-73
2022/04/22 09:22:10;;;;;;;;;;;22.90;47.60;;;;;;5056801;28;19919;-72
2022/04/22 09:24:46;;;;;;;;;;;22.90;47.40;;;;;;5077820;28;19928;-71
2022/04/22 09:27:13;;;;;;;;;;;22.80;47.20;;;;;;5056708;28;19924;-73
2022/04/22 09:29:42;;;;;;;;;;;22.80;46.80;;;;;;5044427;28;19966;-73
2022/04/22 09:32:09;;;;;;;;;;;22.70;46.50;;;;;;5049116;28;21010;-73
2022/04/22 09:34:42;;;;;;;;;;;22.80;46.40;;;;;;5054575;28;19931;-73
2022/04/22 09:42:50;;;;;;;;;;;22.60;46.00;;;;;;5065057;28;19924;-71
2022/04/22 09:45:16;;;;;;;;;;;22.60;45.90;;;;;;5038519;28;20648;-71
2022/04/22 09:47:42;;;;;;;;;;;22.60;45.90;;;;;;5044248;28;19993;-72
2022/04/22 09:50:11;;;;;;;;;;;22.60;45.80;;;;;;5048255;28;19928;-70
2022/04/22 09:52:46;;;;;;;;;;;22.60;45.70;;;;;;5060157;28;19920;-72
2022/04/22 09:55:16;;;;;;;;;;;22.60;45.60;;;;;;5061236;28;19924;-71
2022/04/22 09:57:55;;;;;;;;;;;22.60;45.70;;;;;;5040743;28;19935;-72
2022/04/22 10:00:21;;;;;;;;;;;22.60;45.60;;;;;;5057919;28;19921;-71
2022/04/22 10:02:51;;;;;;;;;;;22.60;45.50;;;;;;5025980;28;19982;-71
2022/04/22 10:05:20;;;;;;;;;;;22.60;45.50;;;;;;5063741;28;19924;-71
2022/04/22 10:07:50;;;;;;;;;;;22.60;45.50;;;;;;5060346;28;20030;-73
2022/04/22 10:10:17;;;;;;;;;;;22.50;45.30;;;;;;5061842;28;20407;-73
2022/04/22 10:12:42;;;;;;;;;;;22.50;45.30;;;;;;5062092;28;19973;-72
2022/04/22 10:15:09;;;;;;;;;;;22.50;45.20;;;;;;5046704;28;19924;-72
2022/04/22 10:17:34;;;;;;;;;;;22.50;45.10;;;;;;5055984;28;19928;-75
2022/04/22 10:20:01;;;;;;;;;;;22.50;45.10;;;;;;5055593;28;19927;-75
2022/04/22 10:22:27;;;;;;;;;;;22.50;45.10;;;;;;5060765;28;19962;-76
2022/04/22 10:24:54;;;;;;;;;;;22.50;45.10;;;;;;5055510;28;19954;-73
2022/04/22 10:27:21;;;;;;;;;;;22.50;45.00;;;;;;5061934;28;19927;-75
2022/04/22 10:29:47;;;;;;;;;;;22.50;45.80;;;;;;5052442;28;19929;-73
2022/04/22 10:32:13;;;;;;;;;;;22.50;45.00;;;;;;5065470;28;19969;-71
2022/04/22 10:34:39;;;;;;;;;;;22.60;45.00;;;;;;5046086;28;19924;-72
2022/04/22 10:37:14;;;;;;;;;;;22.50;44.90;;;;;;5054554;28;19924;-73
2022/04/22 10:39:40;;;;;;;;;;;22.50;44.90;;;;;;5055159;28;20022;-75
2022/04/22 10:42:14;;;;;;;;;;;22.50;44.80;;;;;;5057871;28;19970;-77
2022/04/22 10:47:36;;;;;;;;;;;22.50;44.70;;;;;;5058853;28;19955;-74
2022/04/22 10:50:21;;;;;;;;;;;22.50;44.80;;;;;;5045893;28;20574;-79
2022/04/22 10:52:54;;;;;;;;;;;22.50;44.60;;;;;;5044240;28;21079;-74
2022/04/22 10:55:20;;;;;;;;;;;22.50;44.60;;;;;;5056617;28;19924;-72
2022/04/22 10:57:50;;;;;;;;;;;22.60;44.70;;;;;;5050703;28;19935;-77
2022/04/22 11:00:17;;;;;;;;;;;22.50;44.60;;;;;;5053034;28;20368;-71
2022/04/22 11:02:43;;;;;;;;;;;22.60;44.60;;;;;;5042246;28;19956;-74
2022/04/22 11:05:21;;;;;;;;;;;22.60;44.60;;;;;;5055466;28;19925;-74
2022/04/22 11:07:47;;;;;;;;;;;22.50;44.50;;;;;;5060207;28;19928;-75
2022/04/22 11:10:12;;;;;;;;;;;22.50;44.40;;;;;;5056520;28;19925;-74
2022/04/22 11:12:54;;;;;;;;;;;22.60;44.40;;;;;;5072690;28;19927;-72
2022/04/22 11:15:38;;;;;;;;;;;22.50;44.30;;;;;;5080444;28;19927;-72
2022/04/22 11:18:04;;;;;;;;;;;22.60;44.40;;;;;;5046552;28;19920;-73
2022/04/22 11:20:30;;;;;;;;;;;22.60;44.30;;;;;;5062935;28;19924;-74
2022/04/22 11:22:56;;;;;;;;;;;22.60;44.30;;;;;;5055938;28;19920;-74
2022/04/22 11:25:25;;;;;;;;;;;22.50;44.20;;;;;;5047708;28;19924;-74
2022/04/22 11:27:53;;;;;;;;;;;22.50;44.10;;;;;;5060452;28;19924;-72
2022/04/22 11:30:19;;;;;;;;;;;22.60;44.00;;;;;;5063766;28;19924;-78
2022/04/22 11:32:48;;;;;;;;;;;22.50;44.00;;;;;;5059106;28;20063;-73
2022/04/22 11:35:21;;;;;;;;;;;22.50;43.90;;;;;;5061213;28;19924;-77
2022/04/22 11:38:00;;;;;;;;;;;22.60;43.80;;;;;;5063770;28;19931;-79
2022/04/22 11:40:25;;;;;;;;;;;22.60;43.90;;;;;;5077449;28;20026;-77
2022/04/22 11:42:54;;;;;;;;;;;22.60;43.80;;;;;;5063743;28;20023;-77
2022/04/22 11:45:20;;;;;;;;;;;22.60;44.60;;;;;;5058558;28;19920;-76
2022/04/22 11:47:45;;;;;;;;;;;22.60;43.80;;;;;;5044965;28;19928;-77
2022/04/22 11:50:21;;;;;;;;;;;22.60;43.70;;;;;;5076857;28;19963;-77
2022/04/22 11:52:51;;;;;;;;;;;22.70;43.80;;;;;;5080050;28;19932;-78
2022/04/22 11:55:16;;;;;;;;;;;22.70;43.80;;;;;;5064716;28;19981;-79
2022/04/22 11:57:42;;;;;;;;;;;22.70;43.70;;;;;;5063488;28;19928;-76
2022/04/22 12:05:40;;;;;;;;;;;22.80;43.60;;;;;;5054122;28;19935;-76
2022/04/22 12:08:11;;;;;;;;;;;22.80;43.60;;;;;;5040228;28;19924;-75
2022/04/22 12:10:36;;;;;;;;;;;22.80;43.60;;;;;;5063721;28;19912;-79
2022/04/22 12:13:03;;;;;;;;;;;22.80;43.50;;;;;;5048716;28;19930;-75
2022/04/22 12:15:29;;;;;;;;;;;22.90;43.60;;;;;;5059826;28;19924;-76
2022/04/22 12:17:55;;;;;;;;;;;22.90;43.50;;;;;;5084027;28;19927;-76
2022/04/22 12:20:20;;;;;;;;;;;22.90;43.60;;;;;;5068000;28;19928;-76
2022/04/22 12:22:49;;;;;;;;;;;23.00;43.30;;;;;;5061969;28;19930;-76
2022/04/22 12:25:23;;;;;;;;;;;23.00;43.20;;;;;;5061767;28;20834;-76
2022/04/22 12:28:13;;;;;;;;;;;23.10;43.20;;;;;;5086908;28;19924;-77
2022/04/22 12:30:39;;;;;;;;;;;23.10;43.10;;;;;;5087081;28;19920;-76
2022/04/22 12:33:05;;;;;;;;;;;23.30;43.00;;;;;;5068425;28;20306;-77
2022/04/22 12:35:31;;;;;;;;;;;23.60;43.00;;;;;;5069667;28;19998;-77
2022/04/22 12:37:57;;;;;;;;;;;24.10;42.60;;;;;;5067645;28;20393;-76
2022/04/22 12:40:23;;;;;;;;;;;24.60;42.10;;;;;;5068651;28;20438;-76
2022/04/22 12:42:48;;;;;;;;;;;25.10;41.50;;;;;;5068558;28;21143;-76
2022/04/22 12:53:38;;;;;;;;;;;26.90;39.00;;;;;;5068272;28;19924;-77
2022/04/22 12:56:05;;;;;;;;;;;27.20;38.60;;;;;;5065304;28;19926;-77
2022/04/22 12:58:32;;;;;;;;;;;27.40;38.10;;;;;;5067143;28;19920;-76
2022/04/22 13:00:58;;;;;;;;;;;27.50;37.60;;;;;;5052085;28;20444;-76
2022/04/22 13:03:34;;;;;;;;;;;27.60;37.70;;;;;;5085791;28;19920;-77
2022/04/22 13:06:00;;;;;;;;;;;27.60;37.30;;;;;;5069335;28;19962;-76
2022/04/22 13:08:25;;;;;;;;;;;27.60;37.10;;;;;;5067189;28;19967;-77
2022/04/22 13:10:51;;;;;;;;;;;27.60;37.10;;;;;;5069342;28;20287;-77
2022/04/22 13:13:16;;;;;;;;;;;27.30;36.80;;;;;;5067722;28;20125;-77
2022/04/22 13:15:42;;;;;;;;;;;27.20;37.20;;;;;;5068193;28;20110;-77
2022/04/22 13:18:07;;;;;;;;;;;26.90;37.30;;;;;;5068633;28;19923;-77
2022/04/22 13:20:33;;;;;;;;;;;26.70;37.50;;;;;;5067024;28;19921;-77
2022/04/22 13:22:58;;;;;;;;;;;26.50;37.70;;;;;;5058159;28;19927;-77
2022/04/22 13:25:24;;;;;;;;;;;26.30;38.00;;;;;;5047890;28;20376;-77
2022/04/22 13:27:49;;;;;;;;;;;26.20;38.20;;;;;;5048647;28;19963;-77
2022/04/22 13:30:15;;;;;;;;;;;26.10;38.20;;;;;;5052491;28;19971;-77
2022/04/22 13:32:41;;;;;;;;;;;25.90;38.30;;;;;;5067968;28;19927;-77
2022/04/22 13:35:07;;;;;;;;;;;25.70;38.50;;;;;;5048177;28;19971;-76
2022/04/22 13:37:32;;;;;;;;;;;25.60;39.70;;;;;;5047810;28;19924;-77
2022/04/22 13:39:58;;;;;;;;;;;25.40;39.10;;;;;;5064662;28;19924;-76
2022/04/22 13:42:23;;;;;;;;;;;25.30;39.30;;;;;;5031248;28;19967;-76
2022/04/22 13:53:02;;;;;;;;;;;24.90;39.90;;;;;;5058927;28;19924;-74
2022/04/22 13:55:28;;;;;;;;;;;24.80;40.00;;;;;;5052702;28;19920;-77
2022/04/22 13:57:53;;;;;;;;;;;24.70;40.20;;;;;;5062052;28;19943;-75
2022/04/22 14:00:19;;;;;;;;;;;24.60;40.30;;;;;;5055115;28;20393;-78
2022/04/22 14:02:44;;;;;;;;;;;24.60;40.60;;;;;;5055755;28;19936;-76
2022/04/22 14:05:10;;;;;;;;;;;24.50;40.60;;;;;;5077930;28;19924;-76
2022/04/22 14:07:35;;;;;;;;;;;24.50;40.50;;;;;;5063327;28;19924;-75
2022/04/22 14:10:01;;;;;;;;;;;24.40;40.80;;;;;;5065166;28;19920;-76
2022/04/22 14:12:26;;;;;;;;;;;24.40;40.70;;;;;;5057118;28;19957;-76
2022/04/22 14:14:52;;;;;;;;;;;24.30;40.90;;;;;;5052518;28;19970;-78
2022/04/22 14:17:19;;;;;;;;;;;24.30;41.10;;;;;;5057567;28;19943;-75
2022/04/22 14:19:45;;;;;;;;;;;24.30;41.30;;;;;;5056653;28;20019;-75
2022/04/22 14:22:10;;;;;;;;;;;24.20;41.30;;;;;;5042056;28;20383;-76
2022/04/22 14:24:36;;;;;;;;;;;24.20;41.40;;;;;;5053809;28;20211;-75
2022/04/22 14:27:03;;;;;;;;;;;24.20;41.60;;;;;;5058441;28;19924;-76
2022/04/22 14:29:28;;;;;;;;;;;24.20;41.70;;;;;;5055196;28;19924;-75
2022/04/22 14:31:54;;;;;;;;;;;24.10;41.70;;;;;;5055440;28;19932;-77
2022/04/22 14:34:22;;;;;;;;;;;24.10;42.00;;;;;;5056449;28;20005;-75
2022/04/22 14:36:48;;;;;;;;;;;24.10;41.90;;;;;;5044994;28;19924;-75
2022/04/22 14:39:13;;;;;;;;;;;24.00;41.90;;;;;;5057633;28;19930;-76
2022/04/22 14:41:39;;;;;;;;;;;24.00;42.10;;;;;;5038152;28;19936;-74
2022/04/22 14:44:05;;;;;;;;;;;23.90;42.30;;;;;;5046259;28;19928;-76
2022/04/22 14:46:31;;;;;;;;;;;23.90;42.40;;;;;;5039469;28;19924;-75
2022/04/22 14:48:56;;;;;;;;;;;23.90;42.80;;;;;;5052398;28;19928;-73
2022/04/22 14:51:22;;;;;;;;;;;23.90;43.00;;;;;;5052387;28;20011;-72
2022/04/22 14:53:47;;;;;;;;;;;23.80;43.20;;;;;;5048007;28;20017;-74
2022/04/22 14:56:15;;;;;;;;;;;23.80;43.50;;;;;;5050273;28;19930;-74
2022/04/22 14:58:40;;;;;;;;;;;23.80;43.70;;;;;;5043631;28;19935;-75
2022/04/22 15:01:06;;;;;;;;;;;23.80;43.70;;;;;;5049048;28;19928;-81
2022/04/22 15:03:31;;;;;;;;;;;23.80;43.60;;;;;;5038567;28;19936;-77
2022/04/22 15:05:57;;;;;;;;;;;23.80;43.70;;;;;;5047455;28;20446;-76
2022/04/22 15:08:23;;;;;;;;;;;23.70;43.70;;;;;;5035059;28;19931;-75
2022/04/22 15:10:49;;;;;;;;;;;23.70;43.70;;;;;;5067108;28;20011;-77
2022/04/22 15:13:15;;;;;;;;;;;23.70;43.90;;;;;;5072689;28;20019;-76
2022/04/22 15:15:40;;;;;;;;;;;23.70;43.80;;;;;;5058753;28;19923;-79
2022/04/22 15:26:20;;;;;;;;;;;23.70;44.20;;;;;;5063771;28;20483;-76
2022/04/22 15:28:45;;;;;;;;;;;23.70;44.20;;;;;;5056877;28;20906;-78
2022/04/22 15:31:14;;;;;;;;;;;23.60;44.20;;;;;;5052529;28;20297;-82
2022/04/22 15:33:43;;;;;;;;;;;23.60;44.30;;;;;;5037728;28;19963;-77